Time;durP1;ratioP1;P1;durP2;ratioP2;P2;SDS_P1;SDS_P2;PMS_P1;PMS_P2;Temp;Humidity;BMP_temperature;BMP_pressure;BME280_temperature;BME280_humidity;BME280_pressure;Samples;Min_cycle;Max_cycle;Signal;HPM_P1;HPM_P2
2022/04/14 17:24:55;;;;;;;8.53;4.22;;;;;;;21.60;25.02;100098.39;2525946;77;25442;-76
2022/04/14 17:28:29;;;;;;;8.80;3.70;;;;;;;21.85;25.06;100094.64;2517143;78;25731;-77
2022/04/14 17:31:57;;;;;;;7.35;3.30;;;;;;;22.10;25.28;100098.80;2515354;78;25678;-77
2022/04/14 17:35:27;;;;;;;8.10;3.42;;;;;;;22.29;25.46;100109.81;2516909;78;25586;-77
2022/04/14 17:38:56;;;;;;;7.12;3.92;;;;;;;22.41;25.58;100104.16;2516706;78;25618;-78
2022/04/14 17:42:19;;;;;;;5.15;3.80;;;;;;;22.50;25.55;100104.33;2516019;78;25631;-76
2022/04/14 17:45:47;;;;;;;9.28;3.37;;;;;;;22.56;25.81;100097.04;2512771;77;25769;-80
2022/04/14 17:49:17;;;;;;;;;;;;;;;;;;;;;
2022/04/14 17:53:00;;;;;;;;;;;;;;;;;;;;;
2022/04/14 17:56:40;;;;;;;;;;;;;;;22.68;26.33;100106.44;2489675;78;25635;-80
2022/04/14 18:00:34;;;;;;;6.78;3.50;;;;;;;22.72;26.58;100109.88;2480456;78;25694;-80
2022/04/14 18:04:15;;;;;;;7.22;3.65;;;;;;;22.69;26.74;100114.81;2395023;80;25766;-81
2022/04/14 18:08:05;;;;;;;;;;;;;;;;;;;;;
2022/04/14 18:11:45;;;;;;;9.15;4.05;;;;;;;22.68;27.30;100113.52;2379226;82;25660;-80
2022/04/14 18:15:09;;;;;;;9.73;3.33;;;;;;;22.66;27.51;100118.03;2383188;79;26279;-81
2022/04/14 18:18:43;;;;;;;8.40;3.42;;;;;;;22.64;27.69;100114.06;2379081;81;26328;-81
2022/04/14 18:26:46;;;;;;;9.05;4.08;;;;;;;22.61;28.01;100123.45;2301633;85;25765;-80
2022/04/14 18:30:27;;;;;;;5.65;3.70;;;;;;;22.57;28.13;100124.01;2342180;82;26450;-81
2022/04/14 18:33:55;;;;;;;5.67;3.47;;;;;;;22.53;28.27;100122.37;2341445;82;25677;-81
2022/04/14 18:37:30;;;;;;;4.97;4.12;;;;;;;22.50;28.41;100122.45;2345081;82;26484;-81
2022/04/14 18:41:11;;;;;;;5.72;3.22;;;;;;;22.47;28.62;100117.23;2344956;82;26334;-81
2022/04/14 18:44:42;;;;;;;8.23;4.10;;;;;;;22.45;28.67;100117.75;2320358;83;26010;-79
2022/04/14 18:48:33;;;;;;;7.17;4.25;;;;;;;22.41;28.82;100116.11;2325952;82;26101;-84
2022/04/14 18:52:07;;;;;;;9.13;4.17;;;;;;;22.38;28.85;100114.87;2300195;85;25719;-83
2022/04/14 18:56:34;;;;;;;5.12;4.37;;;;;;;22.34;28.95;100111.43;2284772;84;25703;-84
2022/04/14 18:59:25;;;;;;;6.35;4.45;;;;;;;22.33;28.94;100114.12;2201120;86;26002;-84
2022/04/14 19:03:44;;;;;;;12.25;5.05;;;;;;;22.28;28.98;100118.24;2283541;83;25842;-83
2022/04/14 19:07:09;;;;;;;12.53;6.15;;;;;;;22.26;29.04;100115.20;2261641;87;26394;-82
2022/04/14 19:10:51;;;;;;;13.72;7.03;;;;;;;22.23;28.98;100113.97;2264473;87;25729;-83
2022/04/14 19:14:20;;;;;;;9.05;6.05;;;;;;;22.20;29.12;100110.06;2224104;87;26052;-82
2022/04/14 19:17:47;;;;;;;8.95;5.67;;;;;;;22.16;29.23;100113.27;2226145;87;35362;-82
2022/04/14 19:21:19;;;;;;;10.95;6.90;;;;;;;22.14;29.30;100123.05;2207077;88;25727;-84
2022/04/14 19:25:05;;;;;;;;;;;;;;;;;;;;;
2022/04/14 19:28:26;;;;;;;10.82;6.45;;;;;;;22.07;29.41;100125.00;2204785;88;25703;-79
2022/04/14 19:31:52;;;;;;;7.97;6.33;;;;;;;22.05;29.60;100120.18;2228582;86;34763;-81
2022/04/14 19:35:22;;;;;;;11.80;6.70;;;;;;;22.03;29.68;100125.11;2228963;87;25697;-80
2022/04/14 19:39:04;;;;;;;14.10;7.20;;;;;;;22.00;29.79;100122.53;2228302;88;25693;-83
2022/04/14 19:42:18;;;;;;;9.73;6.97;;;;;;;21.99;29.78;100114.17;2232196;87;25388;-81
2022/04/14 19:45:41;;;;;;;11.60;7.45;;;;;;;21.96;29.90;100115.12;2278763;86;25571;-81
2022/04/14 19:49:04;;;;;;;11.60;6.47;;;;;;;21.93;29.84;100105.91;2298593;84;25343;-80
2022/04/14 19:52:54;;;;;;;9.10;7.08;;;;;;;21.91;29.83;100104.64;2298465;86;25254;-80
2022/04/14 19:56:18;;;;;;;12.23;6.87;;;;;;;21.89;29.96;100108.23;2333335;84;25694;-81
2022/04/14 19:59:49;;;;;;;11.22;7.42;;;;;;;21.86;29.99;100102.55;2319364;84;26478;-81
2022/04/14 20:03:10;;;;;;;12.60;6.78;;;;;;;21.82;30.01;100096.92;2311121;85;26571;-81
2022/04/14 20:06:41;;;;;;;9.58;6.80;;;;;;;21.81;30.14;100096.52;2309443;84;25703;-79
2022/04/14 20:10:24;;;;;;;8.43;6.78;;;;;;;21.79;30.25;100100.11;2322155;84;25657;-80
2022/04/14 20:14:00;;;;;;;15.30;7.28;;;;;;;21.76;30.21;100104.17;2326037;84;25573;-80
2022/04/14 20:17:58;;;;;;;;;;;;;;;;;;;;;
2022/04/14 20:21:24;;;;;;;9.73;7.28;;;;;;;21.71;30.36;100096.34;2414796;81;25719;-81
2022/04/14 20:25:27;;;;;;;8.40;6.65;;;;;;;21.66;30.35;100089.81;2341700;84;25743;-81
2022/04/14 20:29:15;;;;;;;11.80;6.22;;;;;;;21.64;30.44;100090.33;2315973;84;25721;-81
2022/04/14 20:33:05;;;;;;;14.70;6.28;;;;;;;21.62;30.46;100092.14;2332209;83;26253;-80
2022/04/14 20:40:44;;;;;;;14.23;7.92;;;;;;;21.57;30.82;100088.75;2178693;90;25775;-84
2022/04/14 20:44:12;;;;;;;10.15;6.58;;;;;;;21.54;30.90;100084.85;2178889;90;25722;-83
2022/04/14 20:47:48;;;;;;;11.28;5.95;;;;;;;21.52;31.07;100085.80;2235660;87;25794;-81
2022/04/14 20:51:27;;;;;;;9.38;6.70;;;;;;;21.51;31.14;100078.76;2198752;88;26242;-83
2022/04/14 21:02:36;;;;;;;14.33;6.55;;;;;;;21.43;31.56;100074.53;2146928;88;26322;-82
2022/04/14 21:06:02;;;;;;;11.15;6.60;;;;;;;21.41;31.65;100076.80;2097924;93;25825;-83
2022/04/14 21:09:31;;;;;;;9.13;7.35;;;;;;;21.39;31.76;100070.65;2117082;92;25749;-83
2022/04/14 21:12:59;;;;;;;16.73;7.75;;;;;;;21.37;31.80;100072.03;2140105;90;25822;-83
2022/04/14 21:16:28;;;;;;;12.03;6.90;;;;;;;21.36;31.97;100070.73;2136696;90;26483;-81
2022/04/14 21:19:56;;;;;;;8.83;6.72;;;;;;;21.34;32.09;100070.78;2122471;91;25712;-85
2022/04/14 21:23:27;;;;;;;9.18;7.30;;;;;;;21.32;32.31;100065.06;2122147;91;25828;-80
2022/04/14 21:27:05;;;;;;;10.53;7.05;;;;;;;21.30;32.31;100066.44;2090210;94;25769;-85
2022/04/14 21:30:41;;;;;;;11.93;7.12;;;;;;;21.26;32.17;100067.40;2070832;93;25750;-81
2022/04/14 21:34:08;;;;;;;9.48;8.18;;;;;;;21.21;31.99;100059.58;2171153;88;25869;-82
2022/04/14 21:37:39;;;;;;;10.48;8.05;;;;;;;21.19;31.83;100060.52;2195800;88;25799;-83
2022/04/14 21:41:15;;;;;;;12.18;7.08;;;;;;;21.15;31.78;100057.53;2268448;85;25670;-83
2022/04/14 21:44:46;;;;;;;9.23;8.30;;;;;;;21.11;31.65;100062.50;2247398;87;25731;-82
2022/04/14 21:48:18;;;;;;;11.53;7.95;;;;;;;21.08;31.60;100057.27;2271490;87;25738;-82
2022/04/14 21:51:56;;;;;;;12.58;8.50;;;;;;;21.04;31.53;100055.16;2230632;87;25810;-85
2022/04/14 21:55:41;;;;;;;;;;;;;;;;;;;;;
2022/04/14 21:59:08;;;;;;;11.28;8.28;;;;;;;21.00;31.44;100044.22;2269112;87;25681;-81
2022/04/14 22:02:40;;;;;;;10.13;8.50;;;;;;;20.97;31.50;100051.78;2270726;87;25630;-81
2022/04/14 22:06:12;;;;;;;14.35;9.43;;;;;;;20.95;31.44;100048.74;2246804;87;25741;-81
2022/04/14 22:09:46;;;;;;;17.60;9.90;;;;;;;20.93;31.39;100043.49;2270248;87;25723;-81
2022/04/14 22:13:12;;;;;;;14.18;8.78;;;;;;;20.90;31.40;100046.67;2247811;87;25776;-80
2022/04/14 22:16:46;;;;;;;;;;;;;;;;;;;;;
2022/04/14 22:20:14;;;;;;;14.98;9.40;;;;;;;20.84;31.47;100045.48;2266219;85;25739;-81
2022/04/14 22:23:42;;;;;;;14.55;9.53;;;;;;;20.81;31.53;100042.91;2267401;86;25863;-81
2022/04/14 22:27:20;;;;;;;21.57;9.43;;;;;;;20.78;31.51;100050.47;2268847;87;25610;-82
2022/04/14 22:30:52;;;;;;;16.90;9.25;;;;;;;20.76;31.66;100048.33;2268869;86;25809;-81
2022/04/14 22:34:20;;;;;;;14.03;9.68;;;;;;;20.73;31.69;100047.94;2269163;85;25720;-82
2022/04/14 22:38:01;;;;;;;16.20;10.38;;;;;;;20.71;31.75;100032.52;2267091;86;25780;-81
2022/04/14 22:41:24;;;;;;;23.02;10.82;;;;;;;20.70;31.81;100035.22;2140471;89;25792;-82
2022/04/14 22:44:56;;;;;;;21.35;10.48;;;;;;;20.68;31.86;100033.91;2120188;92;25932;-82
2022/04/14 22:48:31;;;;;;;20.97;11.78;;;;;;;20.67;31.95;100039.27;2142998;90;25719;-82
2022/04/14 22:52:12;;;;;;;;;;;;;;;;;;;;;
2022/04/14 22:55:46;;;;;;;16.93;12.25;;;;;;;20.62;32.06;100043.36;2150921;88;25907;-81
2022/04/14 22:59:07;;;;;;;21.75;11.73;;;;;;;20.60;32.16;100042.50;2134088;91;25825;-82
2022/04/14 23:02:48;;;;;;;23.80;12.47;;;;;;;20.58;32.22;100042.11;2132707;91;26134;-81
2022/04/14 23:06:16;;;;;;;24.50;12.73;;;;;;;20.56;32.34;100043.95;2149930;91;25282;-80
2022/04/14 23:10:11;;;;;;;18.85;12.88;;;;;;;20.53;32.34;100047.53;2150483;91;25677;-80
2022/04/14 23:13:16;;;;;;;29.92;15.13;;;;;;;20.50;32.41;100047.14;2147017;91;25895;-80
2022/04/14 23:16:42;;;;;;;29.70;14.18;;;;;;;20.49;32.44;100045.83;2160773;88;25730;-80
2022/04/14 23:20:13;;;;;;;23.55;14.38;;;;;;;20.46;32.58;100046.76;2119281;91;25796;-81
2022/04/14 23:23:35;;;;;;;20.57;14.73;;;;;;;20.43;32.70;100040.20;2099653;91;25974;-79
2022/04/14 23:26:56;;;;;;;24.67;16.02;;;;;;;20.40;32.80;100042.92;2119794;93;25796;-80
2022/04/14 23:30:37;;;;;;;27.90;15.93;;;;;;;20.39;32.88;100041.64;2119076;92;25734;-79
2022/04/14 23:33:59;;;;;;;29.18;16.82;;;;;;;20.36;32.98;100036.41;2120189;92;25868;-80
2022/04/14 23:37:39;;;;;;;33.58;17.40;;;;;;;20.33;33.08;100031.18;2154789;89;25772;-79
2022/04/14 23:41:21;;;;;;;28.62;16.80;;;;;;;20.28;33.24;100028.61;2221220;87;26174;-79
2022/04/14 23:44:48;;;;;;;30.27;18.35;;;;;;;20.24;33.27;100029.13;2199820;89;25758;-82
2022/04/14 23:48:09;;;;;;;33.92;18.50;;;;;;;20.21;33.43;100034.49;2201679;89;26004;-78
2022/04/14 23:51:37;;;;;;;27.58;18.57;;;;;;;20.19;33.51;100050.02;2217707;89;25722;-84
2022/04/14 23:55:05;;;;;;;33.35;20.45;;;;;;;20.14;33.55;100067.29;2221998;89;25765;-79
2022/04/14 23:58:39;;;;;;;34.98;19.62;;;;;;;20.11;33.67;100065.16;2221374;89;25673;-82
